createdAt,value
2023-10-10T00:02:20.048Z,38.50
2023-10-10T00:07:28.873Z,33.60
2023-10-10T00:12:36.641Z,34.30
2023-10-10T00:17:44.219Z,38.30
2023-10-10T00:22:59.786Z,36.20
2023-10-10T00:28:17.833Z,39.60
2023-10-10T00:33:24.425Z,35.00
2023-10-10T00:38:31.166Z,40.60
2023-10-10T00:43:38.310Z,44.00
2023-10-10T00:48:46.014Z,44.70
2023-10-10T00:54:12.844Z,40.40
2023-10-10T00:59:18.516Z,49.10
2023-10-10T01:04:36.976Z,36.60
2023-10-10T01:09:57.337Z,44.20
2023-10-10T01:15:09.662Z,39.10
2023-10-10T01:20:27.214Z,46.90
2023-10-10T01:25:46.690Z,44.40
2023-10-10T01:31:05.783Z,43.30
2023-10-10T01:36:20.537Z,45.50
2023-10-10T01:41:33.207Z,42.60
2023-10-10T01:46:39.246Z,41.10
2023-10-10T01:51:46.677Z,41.50
2023-10-10T01:56:54.909Z,43.00
2023-10-10T02:02:00.944Z,45.00
2023-10-10T02:07:17.229Z,43.00
2023-10-10T02:12:23.770Z,39.80
2023-10-10T02:17:31.417Z,36.50
2023-10-10T02:22:48.951Z,41.20
2023-10-10T02:27:57.668Z,37.90
2023-10-10T02:33:04.300Z,39.80
2023-10-10T02:38:13.183Z,38.40
2023-10-10T02:43:34.382Z,45.50
2023-10-10T02:48:43.631Z,42.30
2023-10-10T02:53:49.364Z,41.10
2023-10-10T02:58:55.804Z,45.90
2023-10-10T03:04:04.570Z,36.70
2023-10-10T03:09:15.880Z,33.40
2023-10-10T03:14:28.375Z,36.20
2023-10-10T03:25:09.446Z,33.10
2023-10-10T03:30:23.363Z,29.50
2023-10-10T03:35:45.864Z,34.50
2023-10-10T03:41:05.452Z,32.40
2023-10-10T03:46:43.290Z,30.80
2023-10-10T03:52:21.198Z,32.30
2023-10-10T03:57:44.274Z,32.70
2023-10-10T04:03:07.510Z,36.00
2023-10-10T04:08:31.173Z,36.80
2023-10-10T04:13:54.424Z,35.80
2023-10-10T04:19:17.768Z,33.00
2023-10-10T04:24:41.333Z,40.90
2023-10-10T04:30:04.771Z,36.70
2023-10-10T04:35:28.329Z,45.20
2023-10-10T04:41:06.881Z,38.60
2023-10-10T04:46:36.758Z,38.30
2023-10-10T04:52:00.006Z,42.40
2023-10-10T04:57:23.231Z,31.90
2023-10-10T05:02:46.236Z,41.90
2023-10-10T05:08:11.193Z,39.10
2023-10-10T05:13:34.845Z,40.90
2023-10-10T05:18:58.307Z,41.30
2023-10-10T05:24:04.127Z,43.10
2023-10-10T05:29:12.114Z,42.30
2023-10-10T05:34:18.170Z,36.80
2023-10-10T05:39:24.104Z,37.40
2023-10-10T05:44:30.839Z,38.70
2023-10-10T05:49:38.069Z,34.10
2023-10-10T05:54:43.855Z,38.40
2023-10-10T05:59:49.669Z,38.10
2023-10-10T06:04:55.996Z,36.90
2023-10-10T06:10:07.167Z,39.00
2023-10-10T06:15:13.146Z,42.00
2023-10-10T06:20:27.377Z,36.80
2023-10-10T06:25:34.064Z,32.50
2023-10-10T06:30:40.556Z,30.60
2023-10-10T06:35:53.986Z,32.70
2023-10-10T06:41:00.702Z,33.80
2023-10-10T06:46:07.460Z,30.50
2023-10-10T06:51:13.367Z,32.20
2023-10-10T06:56:19.221Z,28.00
2023-10-10T07:01:25.797Z,26.80
2023-10-10T07:06:32.075Z,25.00
2023-10-10T07:11:40.441Z,22.70
2023-10-10T07:16:46.244Z,22.20
2023-10-10T07:21:53.160Z,19.80
2023-10-10T07:27:07.280Z,27.80
2023-10-10T07:32:18.319Z,22.00
2023-10-10T07:37:24.990Z,19.50
2023-10-10T07:42:32.468Z,20.40
2023-10-10T07:47:58.785Z,19.10
2023-10-10T07:53:07.349Z,23.90
2023-10-10T07:58:15.299Z,22.50
2023-10-10T08:03:21.641Z,21.60
2023-10-10T08:08:28.633Z,19.60
2023-10-10T08:13:34.320Z,21.50
2023-10-10T08:18:53.910Z,18.10
2023-10-10T08:24:00.520Z,18.80
2023-10-10T08:29:08.356Z,19.20
2023-10-10T08:34:16.255Z,20.50
2023-10-10T08:39:27.398Z,22.00
2023-10-10T08:44:37.354Z,22.40
2023-10-10T08:49:43.439Z,22.30
2023-10-10T08:59:55.992Z,21.20
2023-10-10T09:05:02.013Z,20.20
2023-10-10T09:15:18.430Z,25.10
2023-10-10T09:20:30.453Z,23.00
2023-10-10T09:25:44.129Z,24.50
2023-10-10T09:31:00.487Z,24.90
2023-10-10T09:36:10.639Z,23.90
2023-10-10T09:41:29.734Z,22.10
2023-10-10T09:47:00.985Z,25.90
2023-10-10T09:52:26.491Z,28.20
2023-10-10T09:57:33.362Z,28.90
2023-10-10T10:02:45.308Z,31.00
2023-10-10T10:13:25.516Z,30.20
2023-10-10T10:18:45.829Z,33.90
2023-10-10T10:23:57.895Z,31.60
2023-10-10T10:29:17.397Z,34.00
2023-10-10T10:34:32.537Z,30.60
2023-10-10T10:39:39.135Z,31.40
2023-10-10T10:44:48.501Z,27.40
2023-10-10T10:49:57.469Z,31.30
2023-10-10T10:55:23.208Z,32.80
2023-10-10T11:00:58.433Z,30.80
2023-10-10T11:06:07.889Z,25.40
2023-10-10T11:11:27.256Z,29.70
2023-10-10T11:16:39.765Z,27.60
2023-10-10T11:21:50.072Z,28.80
2023-10-10T11:27:16.405Z,27.60
2023-10-10T11:32:26.644Z,27.40
2023-10-10T11:37:43.876Z,28.20
2023-10-10T11:42:51.776Z,23.80
2023-10-10T11:48:02.502Z,27.30
2023-10-10T11:53:09.353Z,26.70
2023-10-10T11:58:18.891Z,29.30
2023-10-10T12:03:43.684Z,28.00
2023-10-10T12:08:51.843Z,29.00
2023-10-10T12:13:57.968Z,27.50
2023-10-10T12:19:07.200Z,26.90
2023-10-10T12:24:13.655Z,27.20
2023-10-10T12:29:19.690Z,32.70
2023-10-10T12:34:26.723Z,31.40
2023-10-10T12:39:33.029Z,33.60
2023-10-10T12:44:38.890Z,35.70
2023-10-10T12:49:46.310Z,30.80
2023-10-10T12:54:59.970Z,34.10
2023-10-10T13:00:23.715Z,37.10
2023-10-10T13:05:29.746Z,33.90
2023-10-10T13:10:38.970Z,33.20
2023-10-10T13:15:53.639Z,40.50
2023-10-10T13:21:01.682Z,35.10
2023-10-10T13:26:07.547Z,28.30
2023-10-10T13:31:13.521Z,34.30
2023-10-10T13:36:19.376Z,31.50
2023-10-10T13:41:30.971Z,30.50
2023-10-10T13:46:37.585Z,32.30
2023-10-10T13:51:43.859Z,30.90
2023-10-10T13:56:51.815Z,27.20
2023-10-10T14:02:04.496Z,31.10
2023-10-10T14:07:12.620Z,32.90
2023-10-10T14:12:22.244Z,32.40
2023-10-10T14:17:28.170Z,33.20
2023-10-10T14:22:49.490Z,31.50
2023-10-10T14:27:59.704Z,30.90
2023-10-10T14:33:05.808Z,30.30
2023-10-10T14:38:14.384Z,29.80
2023-10-10T14:43:20.917Z,33.50
2023-10-10T14:48:27.033Z,32.00
2023-10-10T14:53:36.144Z,28.60
2023-10-10T14:58:42.459Z,24.30
2023-10-10T15:03:51.765Z,25.10
2023-10-10T15:08:57.978Z,26.50
2023-10-10T15:14:07.840Z,25.20
2023-10-10T15:19:13.740Z,28.80
2023-10-10T15:24:20.632Z,26.90
2023-10-10T15:29:29.742Z,25.30
2023-10-10T15:34:35.519Z,22.50
2023-10-10T15:44:48.481Z,26.10
2023-10-10T15:50:01.544Z,26.90
2023-10-10T15:55:12.215Z,26.50
2023-10-10T16:00:22.318Z,27.70
2023-10-10T16:05:28.408Z,26.30
2023-10-10T16:10:37.011Z,36.90
2023-10-10T16:15:44.249Z,38.60
2023-10-10T16:25:55.276Z,96.10
2023-10-10T16:41:09.992Z,38.00
2023-10-10T16:51:21.902Z,33.00
2023-10-10T16:56:28.642Z,34.90
2023-10-10T17:01:35.978Z,37.40
2023-10-10T17:06:41.961Z,35.40
2023-10-10T17:11:52.421Z,33.20
2023-10-10T17:16:58.921Z,37.20
2023-10-10T17:22:04.675Z,32.80
2023-10-10T17:27:10.711Z,37.00
2023-10-10T17:32:17.316Z,34.50
2023-10-10T17:37:24.133Z,43.80
2023-10-10T17:42:30.083Z,42.20
2023-10-10T17:52:39.898Z,28.80
2023-10-10T17:57:45.620Z,34.00
2023-10-10T18:02:51.480Z,33.30
2023-10-10T18:13:06.097Z,59.80
2023-10-10T18:18:12.093Z,57.70
2023-10-10T18:23:17.776Z,49.70
2023-10-10T18:28:23.670Z,65.10
2023-10-10T18:33:29.426Z,48.90
2023-10-10T18:43:43.490Z,38.20
2023-10-10T18:48:49.637Z,40.10
2023-10-10T18:53:57.140Z,45.10
2023-10-10T18:59:02.891Z,58.00
2023-10-10T19:04:09.500Z,50.90
2023-10-10T19:09:19.703Z,56.20
2023-10-10T19:14:28.221Z,51.40
2023-10-10T19:19:34.086Z,85.70
2023-10-10T19:24:41.029Z,120.70
2023-10-10T19:29:46.794Z,67.20
2023-10-10T19:39:57.417Z,55.50
2023-10-10T19:45:24.478Z,40.20
2023-10-10T19:50:32.075Z,35.70
2023-10-10T19:55:38.816Z,48.30
2023-10-10T20:00:47.946Z,49.70
2023-10-10T20:05:54.436Z,44.60
2023-10-10T20:11:01.104Z,39.00
2023-10-10T20:16:16.178Z,43.00
2023-10-10T20:21:22.094Z,42.90
2023-10-10T20:26:28.939Z,39.10
2023-10-10T20:31:34.848Z,45.70
2023-10-10T20:36:40.550Z,46.10
2023-10-10T20:41:49.879Z,37.30
2023-10-10T20:46:56.329Z,41.80
2023-10-10T20:52:02.742Z,41.20
2023-10-10T20:57:08.563Z,46.10
2023-10-10T21:02:14.352Z,41.60
2023-10-10T21:07:21.300Z,47.10
2023-10-10T21:12:27.236Z,45.90
2023-10-10T21:17:34.110Z,37.90
2023-10-10T21:22:40.121Z,39.80
2023-10-10T21:32:57.752Z,55.00
2023-10-10T21:38:03.987Z,56.00
2023-10-10T21:43:09.630Z,48.10
2023-10-10T21:48:15.488Z,49.20
2023-10-10T21:58:27.377Z,41.50
2023-10-10T22:03:34.267Z,43.80
2023-10-10T22:08:40.463Z,37.10
2023-10-10T22:13:49.843Z,38.60
2023-10-10T22:18:59.075Z,53.40
2023-10-10T22:24:05.972Z,40.70
2023-10-10T22:29:12.531Z,45.10
2023-10-10T22:34:19.173Z,47.00
2023-10-10T22:39:26.336Z,49.60
2023-10-10T22:44:32.071Z,59.00
2023-10-10T22:49:37.804Z,56.10
2023-10-10T22:54:43.505Z,51.90
2023-10-10T22:59:49.287Z,47.40
2023-10-10T23:04:55.095Z,48.20
2023-10-10T23:10:01.524Z,49.90
2023-10-10T23:15:12.900Z,47.00
2023-10-10T23:20:21.306Z,45.20
2023-10-10T23:25:27.660Z,42.10
2023-10-10T23:30:34.399Z,41.60
2023-10-10T23:35:40.624Z,36.50
2023-10-10T23:45:58.183Z,38.40
2023-10-10T23:51:08.432Z,45.40
2023-10-10T23:56:14.463Z,44.00
